createdAt,value
2018-12-13T00:00:37.336Z,3.60
2018-12-13T00:03:06.376Z,3.51
2018-12-13T00:05:35.262Z,3.33
2018-12-13T00:08:04.163Z,3.37
2018-12-13T00:10:33.079Z,3.38
2018-12-13T00:13:01.979Z,3.43
2018-12-13T00:15:33.424Z,3.43
2018-12-13T00:18:02.321Z,3.39
2018-12-13T00:20:31.253Z,3.44
2018-12-13T00:23:00.148Z,3.46
2018-12-13T00:25:29.039Z,3.48
2018-12-13T00:27:59.668Z,3.43
2018-12-13T00:30:28.488Z,3.37
2018-12-13T00:32:57.356Z,3.37
2018-12-13T00:35:26.260Z,3.34
2018-12-13T00:37:55.244Z,3.33
2018-12-13T00:40:24.154Z,3.34
2018-12-13T00:42:53.056Z,3.31
2018-12-13T00:45:21.985Z,3.34
2018-12-13T00:47:50.880Z,3.26
2018-12-13T00:50:19.800Z,3.22
2018-12-13T00:52:48.742Z,3.22
2018-12-13T00:55:17.660Z,3.19
2018-12-13T00:57:46.549Z,3.18
2018-12-13T01:00:15.470Z,3.16
2018-12-13T01:02:44.361Z,3.12
2018-12-13T01:05:13.273Z,3.08
2018-12-13T01:07:42.226Z,3.04
2018-12-13T01:10:11.108Z,3.31
2018-12-13T01:12:40.054Z,3.17
2018-12-13T01:15:08.988Z,3.18
2018-12-13T01:17:37.938Z,3.48
2018-12-13T01:20:06.907Z,3.01
2018-12-13T01:22:35.810Z,3.15
2018-12-13T01:25:04.757Z,3.19
2018-12-13T01:27:33.647Z,3.23
2018-12-13T01:30:02.538Z,3.23
2018-12-13T01:32:31.450Z,3.17
2018-12-13T01:35:00.349Z,3.19
2018-12-13T01:37:29.232Z,3.20
2018-12-13T01:39:58.152Z,3.24
2018-12-13T01:42:27.071Z,3.23
2018-12-13T01:44:55.987Z,3.27
2018-12-13T01:47:24.882Z,3.27
2018-12-13T01:49:53.815Z,3.27
2018-12-13T01:52:22.692Z,3.26
2018-12-13T01:54:51.599Z,3.26
2018-12-13T01:57:20.489Z,3.29
2018-12-13T01:59:49.461Z,3.28
2018-12-13T02:02:18.290Z,3.28
2018-12-13T02:04:47.228Z,3.27
2018-12-13T02:07:16.134Z,3.54
2018-12-13T02:09:45.044Z,3.40
2018-12-13T02:12:13.921Z,3.36
2018-12-13T02:14:42.846Z,3.34
2018-12-13T02:17:11.749Z,3.24
2018-12-13T02:19:40.638Z,3.12
2018-12-13T02:22:09.579Z,3.15
2018-12-13T02:24:38.463Z,3.44
2018-12-13T02:27:07.426Z,3.59
2018-12-13T02:29:36.332Z,3.34
2018-12-13T02:32:05.238Z,3.37
2018-12-13T02:34:34.149Z,3.37
2018-12-13T02:37:06.238Z,3.22
2018-12-13T02:39:31.955Z,3.28
2018-12-13T02:42:00.944Z,3.35
2018-12-13T02:44:29.796Z,3.42
2018-12-13T02:46:58.709Z,3.33
2018-12-13T02:49:27.626Z,3.32
2018-12-13T02:51:56.584Z,3.32
2018-12-13T02:54:25.464Z,3.64
2018-12-13T02:56:54.388Z,3.43
2018-12-13T02:59:23.315Z,3.52
2018-12-13T03:01:52.294Z,3.49
2018-12-13T03:04:21.150Z,3.46
2018-12-13T03:06:50.085Z,3.43
2018-12-13T03:09:19.008Z,3.48
2018-12-13T03:11:47.902Z,3.54
2018-12-13T03:14:16.786Z,3.54
2018-12-13T03:16:45.715Z,3.59
2018-12-13T03:19:14.589Z,3.54
2018-12-13T03:21:43.522Z,3.43
2018-12-13T03:24:12.432Z,3.39
2018-12-13T03:26:41.440Z,3.76
2018-12-13T03:29:10.267Z,3.62
2018-12-13T03:31:39.156Z,3.50
2018-12-13T03:34:08.086Z,3.44
2018-12-13T03:36:36.985Z,3.31
2018-12-13T03:39:07.792Z,3.19
2018-12-13T03:41:36.696Z,3.19
2018-12-13T03:44:05.607Z,3.17
2018-12-13T03:46:34.521Z,3.43
2018-12-13T03:49:03.457Z,3.26
2018-12-13T03:51:32.379Z,3.15
2018-12-13T03:54:01.311Z,3.21
2018-12-13T03:56:30.183Z,3.16
2018-12-13T03:58:59.112Z,3.15
2018-12-13T04:01:27.988Z,3.12
2018-12-13T04:03:56.920Z,3.15
2018-12-13T04:06:25.828Z,3.07
2018-12-13T04:08:54.763Z,3.29
2018-12-13T04:11:23.663Z,2.98
2018-12-13T04:13:52.576Z,2.96
2018-12-13T04:16:21.499Z,2.85
2018-12-13T04:18:50.443Z,2.82
2018-12-13T04:21:19.316Z,2.76
2018-12-13T04:23:48.256Z,2.75
2018-12-13T04:26:17.147Z,2.73
2018-12-13T04:28:46.077Z,2.69
2018-12-13T04:31:14.965Z,2.68
2018-12-13T04:33:43.902Z,2.65
2018-12-13T04:36:13.547Z,2.66
2018-12-13T04:38:41.742Z,2.65
2018-12-13T04:41:10.604Z,2.57
2018-12-13T04:43:39.522Z,2.58
2018-12-13T04:46:08.543Z,2.56
2018-12-13T04:48:37.459Z,2.54
2018-12-13T04:51:06.394Z,2.48
2018-12-13T04:53:35.409Z,2.44
2018-12-13T04:56:04.363Z,2.44
2018-12-13T04:58:33.257Z,2.43
2018-12-13T05:01:02.169Z,2.43
2018-12-13T05:03:31.037Z,2.41
2018-12-13T05:05:59.942Z,2.31
2018-12-13T05:08:28.847Z,2.33
2018-12-13T05:10:57.772Z,2.32
2018-12-13T05:13:26.677Z,2.37
2018-12-13T05:15:55.594Z,2.57
2018-12-13T05:18:24.482Z,2.39
2018-12-13T05:20:53.375Z,2.28
2018-12-13T05:23:22.284Z,2.34
2018-12-13T05:25:51.198Z,2.39
2018-12-13T05:28:20.098Z,2.35
2018-12-13T05:30:48.997Z,2.37
2018-12-13T05:33:17.880Z,2.34
2018-12-13T05:35:46.801Z,2.35
2018-12-13T05:38:15.699Z,2.44
2018-12-13T05:40:44.609Z,2.26
2018-12-13T05:43:13.519Z,2.29
2018-12-13T05:45:42.414Z,2.19
2018-12-13T05:48:11.350Z,2.19
2018-12-13T05:50:40.210Z,2.18
2018-12-13T05:53:09.096Z,2.17
2018-12-13T05:55:38.038Z,2.18
2018-12-13T05:58:06.957Z,2.17
2018-12-13T06:00:35.825Z,2.17
2018-12-13T06:03:04.776Z,2.14
2018-12-13T06:05:33.710Z,2.16
2018-12-13T06:08:02.625Z,2.08
2018-12-13T06:10:31.555Z,2.05
2018-12-13T06:13:00.470Z,2.04
2018-12-13T06:15:29.406Z,2.04
2018-12-13T06:17:58.285Z,2.00
2018-12-13T06:20:27.190Z,1.95
2018-12-13T06:22:56.167Z,2.00
2018-12-13T06:25:24.972Z,1.98
2018-12-13T06:27:53.884Z,1.93
2018-12-13T06:30:22.778Z,1.93
2018-12-13T06:32:51.665Z,1.89
2018-12-13T06:35:20.583Z,1.90
2018-12-13T06:37:49.484Z,2.11
2018-12-13T06:40:18.377Z,2.27
2018-12-13T06:42:47.321Z,2.19
2018-12-13T06:45:16.200Z,2.10
2018-12-13T06:47:45.101Z,2.06
2018-12-13T06:50:14.043Z,2.06
2018-12-13T06:52:42.904Z,2.01
2018-12-13T06:55:11.799Z,1.86
2018-12-13T06:57:40.723Z,1.88
2018-12-13T07:00:09.989Z,1.90
2018-12-13T07:02:38.934Z,1.88
2018-12-13T07:05:07.908Z,1.84
2018-12-13T07:07:36.845Z,1.82
2018-12-13T07:10:05.771Z,1.86
2018-12-13T07:12:34.680Z,1.75
2018-12-13T07:15:03.623Z,1.70
2018-12-13T07:17:32.557Z,1.73
2018-12-13T07:20:01.520Z,1.75
2018-12-13T07:22:30.433Z,2.02
2018-12-13T07:24:59.328Z,1.92
2018-12-13T07:27:28.239Z,1.87
2018-12-13T07:29:57.158Z,1.84
2018-12-13T07:32:26.053Z,1.76
2018-12-13T07:35:01.144Z,1.78
2018-12-13T07:37:23.858Z,1.70
2018-12-13T07:39:52.764Z,1.73
2018-12-13T07:42:21.829Z,1.69
2018-12-13T07:44:50.729Z,1.93
2018-12-13T07:47:19.656Z,1.66
2018-12-13T07:49:48.567Z,1.76
2018-12-13T07:52:25.376Z,2.02
2018-12-13T07:54:52.092Z,1.91
2018-12-13T07:57:21.630Z,1.90
2018-12-13T07:59:51.097Z,1.91
2018-12-13T08:02:20.709Z,2.03
2018-12-13T08:04:50.518Z,2.21
2018-12-13T08:07:22.881Z,2.39
2018-12-13T08:09:57.175Z,2.37
2018-12-13T08:12:24.701Z,2.43
2018-12-13T08:14:55.751Z,2.63
2018-12-13T08:17:26.745Z,2.84
2018-12-13T08:19:56.591Z,2.79
2018-12-13T08:22:26.235Z,2.72
2018-12-13T08:25:00.583Z,2.75
2018-12-13T08:27:30.081Z,2.86
2018-12-13T08:30:10.618Z,3.11
2018-12-13T08:32:39.962Z,3.31
2018-12-13T08:35:10.382Z,3.15
2018-12-13T08:37:40.264Z,3.04
2018-12-13T08:40:11.735Z,3.26
2018-12-13T08:42:41.284Z,3.59
2018-12-13T08:45:10.734Z,4.08
2018-12-13T08:47:43.680Z,4.72
2018-12-13T08:50:13.246Z,4.72
2018-12-13T08:52:42.702Z,4.70
2018-12-13T08:55:13.474Z,4.71
2018-12-13T08:57:42.883Z,4.80
2018-12-13T09:00:12.503Z,4.78
2018-12-13T09:02:45.892Z,4.63
2018-12-13T09:05:20.691Z,4.42
2018-12-13T09:07:50.032Z,4.55
2018-12-13T09:10:19.153Z,5.19
2018-12-13T09:12:51.076Z,5.46
2018-12-13T09:15:23.195Z,5.20
2018-12-13T09:17:55.207Z,4.91
2018-12-13T09:20:24.763Z,4.80
2018-12-13T09:22:56.813Z,5.56
2018-12-13T09:25:26.118Z,6.26
2018-12-13T09:27:55.995Z,6.01
2018-12-13T09:30:29.313Z,5.71
2018-12-13T09:32:59.803Z,5.57
2018-12-13T09:35:31.414Z,5.60
2018-12-13T09:38:02.447Z,5.77
2018-12-13T09:40:30.471Z,5.94
2018-12-13T09:43:04.409Z,6.79
2018-12-13T09:45:41.299Z,6.92
2018-12-13T09:48:16.522Z,7.35
2018-12-13T09:50:50.694Z,8.18
2018-12-13T09:53:22.769Z,8.85
2018-12-13T09:55:57.641Z,9.71
2018-12-13T09:58:27.433Z,10.55
2018-12-13T10:01:01.735Z,10.44
2018-12-13T10:03:41.001Z,10.23
2018-12-13T10:06:23.140Z,10.37
2018-12-13T10:08:54.833Z,11.35
2018-12-13T10:11:46.772Z,12.15
2018-12-13T10:14:16.239Z,13.09
2018-12-13T10:16:45.687Z,13.77
2018-12-13T10:19:17.837Z,14.30
2018-12-13T10:21:48.984Z,14.46
2018-12-13T10:24:20.732Z,14.98
2018-12-13T10:26:52.775Z,15.39
2018-12-13T10:29:29.887Z,15.49
2018-12-13T10:31:57.494Z,15.27
2018-12-13T10:34:26.973Z,15.10
2018-12-13T10:36:56.268Z,15.28
2018-12-13T10:39:28.122Z,15.44
2018-12-13T10:42:00.019Z,15.33
2018-12-13T10:44:38.573Z,15.38
2018-12-13T10:47:08.063Z,15.59
2018-12-13T10:49:38.168Z,16.11
2018-12-13T10:52:10.086Z,15.00
2018-12-13T10:54:45.655Z,13.04
2018-12-13T10:57:14.987Z,13.21
2018-12-13T10:59:47.349Z,12.10
2018-12-13T11:02:34.762Z,12.08
2018-12-13T11:05:06.099Z,10.67
2018-12-13T11:07:33.791Z,9.36
2018-12-13T11:10:10.358Z,8.36
2018-12-13T11:12:42.274Z,8.13
2018-12-13T11:15:19.250Z,7.74
2018-12-13T11:17:49.536Z,7.69
2018-12-13T11:20:18.590Z,7.66
2018-12-13T11:22:55.271Z,7.27
2018-12-13T11:25:27.478Z,7.04
2018-12-13T11:28:33.667Z,6.80
2018-12-13T11:31:03.080Z,7.12
2018-12-13T11:33:32.304Z,6.52
2018-12-13T11:36:04.642Z,6.64
2018-12-13T11:38:33.743Z,6.41
2018-12-13T11:41:06.023Z,6.42
2018-12-13T11:43:37.871Z,6.17
2018-12-13T11:46:10.085Z,6.05
2018-12-13T11:48:39.501Z,5.77
2018-12-13T11:51:09.286Z,6.01
2018-12-13T11:53:44.265Z,5.83
2018-12-13T11:56:14.472Z,5.86
2018-12-13T11:58:49.330Z,6.01
2018-12-13T12:01:27.159Z,5.92
2018-12-13T12:03:58.276Z,5.90
2018-12-13T12:06:32.757Z,5.82
2018-12-13T12:09:05.080Z,6.06
2018-12-13T12:11:37.077Z,6.05
2018-12-13T12:14:06.566Z,6.17
2018-12-13T12:16:38.349Z,6.14
2018-12-13T12:19:07.594Z,5.89
2018-12-13T12:21:36.778Z,6.05
2018-12-13T12:24:12.081Z,6.06
2018-12-13T12:26:44.708Z,5.86
2018-12-13T12:29:14.727Z,5.93
2018-12-13T12:31:45.551Z,5.81
2018-12-13T12:34:21.855Z,5.65
2018-12-13T12:36:54.682Z,5.34
2018-12-13T12:39:24.648Z,5.30
2018-12-13T12:41:52.166Z,5.31
2018-12-13T12:44:21.955Z,5.26
2018-12-13T12:46:54.040Z,5.37
2018-12-13T12:49:27.156Z,5.37
2018-12-13T12:52:04.926Z,5.39
2018-12-13T12:54:40.157Z,5.52
2018-12-13T12:57:07.646Z,5.64
2018-12-13T12:59:40.465Z,5.56
2018-12-13T13:02:13.250Z,5.47
2018-12-13T13:04:43.583Z,5.64
2018-12-13T13:07:24.105Z,5.68
2018-12-13T13:09:57.694Z,5.67
2018-12-13T13:12:28.772Z,5.68
2018-12-13T13:14:58.626Z,5.60
2018-12-13T13:17:28.568Z,5.52
2018-12-13T13:19:57.869Z,5.58
2018-12-13T13:22:27.928Z,5.44
2018-12-13T13:25:03.288Z,5.32
2018-12-13T13:27:32.802Z,5.35
2018-12-13T13:30:09.095Z,5.37
2018-12-13T13:32:39.196Z,5.45
2018-12-13T13:35:12.429Z,5.22
2018-12-13T13:37:48.559Z,5.12
2018-12-13T13:40:18.512Z,5.05
2018-12-13T13:42:49.747Z,4.94
2018-12-13T13:45:19.065Z,4.91
2018-12-13T13:47:48.535Z,4.77
2018-12-13T13:50:20.510Z,4.94
2018-12-13T13:52:50.009Z,4.74
2018-12-13T13:55:19.260Z,4.47
2018-12-13T13:57:49.024Z,4.57
2018-12-13T14:00:18.223Z,4.45
2018-12-13T14:02:47.399Z,4.41
2018-12-13T14:05:22.244Z,4.35
2018-12-13T14:07:54.212Z,4.20
2018-12-13T14:10:26.085Z,4.23
2018-12-13T14:12:55.981Z,4.27
2018-12-13T14:15:30.941Z,4.42
2018-12-13T14:18:00.519Z,4.54
2018-12-13T14:20:33.027Z,4.51
2018-12-13T14:23:02.348Z,4.60
2018-12-13T14:25:31.589Z,4.52
2018-12-13T14:28:06.827Z,4.70
2018-12-13T14:30:38.777Z,4.57
2018-12-13T14:33:14.119Z,4.64
2018-12-13T14:35:43.660Z,4.63
2018-12-13T14:38:13.402Z,4.52
2018-12-13T14:40:42.811Z,4.52
2018-12-13T14:43:15.594Z,4.48
2018-12-13T14:45:45.338Z,4.44
2018-12-13T14:48:14.875Z,4.33
2018-12-13T14:50:45.329Z,4.28
2018-12-13T14:53:19.303Z,4.24
2018-12-13T14:55:48.714Z,4.23
2018-12-13T14:58:18.157Z,4.49
2018-12-13T15:00:47.360Z,4.34
2018-12-13T15:03:22.524Z,4.28
2018-12-13T15:05:52.816Z,4.17
2018-12-13T15:08:22.322Z,4.08
2018-12-13T15:10:51.866Z,4.02
2018-12-13T15:13:21.395Z,4.17
2018-12-13T15:15:50.761Z,4.03
2018-12-13T15:18:20.254Z,3.96
2018-12-13T15:20:49.521Z,3.94
2018-12-13T15:23:18.947Z,3.89
2018-12-13T15:25:51.004Z,3.83
2018-12-13T15:28:25.148Z,3.82
2018-12-13T15:31:07.490Z,3.70
2018-12-13T15:33:39.102Z,3.67
2018-12-13T15:36:10.870Z,3.64
2018-12-13T15:38:43.175Z,3.62
2018-12-13T15:41:15.001Z,3.63
2018-12-13T15:43:50.295Z,3.61
2018-12-13T15:46:19.985Z,3.55
2018-12-13T15:48:49.274Z,3.70
2018-12-13T15:51:18.894Z,3.52
2018-12-13T15:53:48.413Z,3.55
2018-12-13T15:56:17.984Z,3.51
2018-12-13T15:58:47.346Z,3.49
2018-12-13T16:01:17.668Z,3.44
2018-12-13T16:03:47.254Z,3.34
2018-12-13T16:06:16.674Z,3.29
2018-12-13T16:08:48.663Z,3.23
2018-12-13T16:11:17.989Z,3.18
2018-12-13T16:13:47.340Z,3.22
2018-12-13T16:16:19.950Z,3.24
2018-12-13T16:18:49.254Z,3.54
2018-12-13T16:21:22.763Z,3.37
2018-12-13T16:23:52.329Z,3.41
2018-12-13T16:26:22.574Z,3.45
2018-12-13T16:28:57.087Z,3.45
2018-12-13T16:31:39.444Z,3.53
2018-12-13T16:34:11.778Z,3.57
2018-12-13T16:36:41.311Z,3.61
2018-12-13T16:39:13.593Z,3.60
2018-12-13T16:41:45.885Z,3.89
2018-12-13T16:44:17.905Z,4.05
2018-12-13T16:46:47.380Z,3.87
2018-12-13T16:49:16.952Z,3.83
2018-12-13T16:51:46.152Z,3.81
2018-12-13T16:54:17.798Z,3.82
2018-12-13T16:56:47.050Z,3.80
2018-12-13T16:59:16.734Z,3.80
2018-12-13T17:01:46.096Z,3.82
2018-12-13T17:04:24.395Z,3.76
2018-12-13T17:06:54.041Z,3.73
2018-12-13T17:09:23.670Z,3.70
2018-12-13T17:11:53.486Z,3.71
2018-12-13T17:14:25.992Z,3.96
2018-12-13T17:16:57.871Z,3.79
2018-12-13T17:19:29.965Z,3.67
2018-12-13T17:22:01.090Z,3.60
2018-12-13T17:24:29.088Z,3.58
2018-12-13T17:26:59.747Z,3.54
2018-12-13T17:29:29.448Z,3.52
2018-12-13T17:32:03.067Z,3.54
2018-12-13T17:34:31.976Z,3.47
2018-12-13T17:37:00.889Z,3.47
2018-12-13T17:39:29.899Z,3.46
2018-12-13T17:41:58.839Z,3.37
2018-12-13T17:44:27.702Z,3.32
2018-12-13T17:46:56.605Z,3.24
2018-12-13T17:49:25.493Z,3.22
2018-12-13T17:51:54.405Z,3.25
2018-12-13T17:54:23.331Z,3.26
2018-12-13T17:56:52.251Z,3.25
2018-12-13T17:59:21.132Z,3.28
2018-12-13T18:01:50.014Z,3.26
2018-12-13T18:04:18.946Z,3.27
2018-12-13T18:06:47.838Z,3.25
2018-12-13T18:09:16.734Z,3.27
2018-12-13T18:11:45.612Z,3.22
2018-12-13T18:14:14.543Z,3.23
2018-12-13T18:16:43.716Z,3.54
2018-12-13T18:19:12.324Z,3.43
2018-12-13T18:21:41.215Z,3.34
2018-12-13T18:24:10.133Z,3.35
2018-12-13T18:26:39.034Z,3.37
2018-12-13T18:29:07.966Z,3.41
2018-12-13T18:31:36.911Z,3.36
2018-12-13T18:34:05.803Z,3.34
2018-12-13T18:36:34.734Z,3.43
2018-12-13T18:39:05.041Z,3.73
2018-12-13T18:41:33.968Z,3.53
2018-12-13T18:44:02.861Z,3.56
2018-12-13T18:46:31.791Z,3.55
2018-12-13T18:49:00.705Z,3.52
2018-12-13T18:51:29.630Z,3.51
2018-12-13T18:53:58.508Z,3.53
2018-12-13T18:56:27.405Z,3.52
2018-12-13T18:58:56.337Z,3.55
2018-12-13T19:01:25.248Z,3.59
2018-12-13T19:03:54.166Z,3.63
2018-12-13T19:06:23.131Z,3.64
2018-12-13T19:08:51.977Z,3.62
2018-12-13T19:11:20.883Z,3.66
2018-12-13T19:13:49.829Z,3.65
2018-12-13T19:16:18.665Z,3.67
2018-12-13T19:18:47.543Z,3.66
2018-12-13T19:21:16.470Z,3.66
2018-12-13T19:23:45.384Z,3.71
2018-12-13T19:26:14.263Z,3.78
2018-12-13T19:28:43.187Z,3.74
2018-12-13T19:31:12.211Z,4.03
2018-12-13T19:33:41.082Z,3.82
2018-12-13T19:36:09.982Z,3.88
2018-12-13T19:38:38.886Z,3.87
2018-12-13T19:41:07.817Z,3.85
2018-12-13T19:43:36.745Z,3.87
2018-12-13T19:46:05.680Z,4.22
2018-12-13T19:48:34.588Z,4.01
2018-12-13T19:51:03.520Z,3.93
2018-12-13T19:53:32.449Z,3.95
2018-12-13T19:56:01.340Z,3.99
2018-12-13T19:58:30.264Z,3.84
2018-12-13T20:00:59.160Z,3.82
2018-12-13T20:03:28.088Z,3.77
2018-12-13T20:05:57.004Z,4.09
2018-12-13T20:08:25.867Z,3.93
2018-12-13T20:10:54.915Z,3.97
2018-12-13T20:13:23.669Z,3.91
2018-12-13T20:15:52.542Z,3.88
2018-12-13T20:18:21.470Z,3.89
2018-12-13T20:20:50.365Z,3.83
2018-12-13T20:23:19.232Z,3.88
2018-12-13T20:25:48.154Z,3.92
2018-12-13T20:28:17.092Z,3.87
2018-12-13T20:30:45.975Z,3.87
2018-12-13T20:33:14.899Z,3.84
2018-12-13T20:35:43.815Z,3.81
2018-12-13T20:38:12.721Z,3.69
2018-12-13T20:40:41.628Z,3.95
2018-12-13T20:43:10.502Z,3.78
2018-12-13T20:45:39.407Z,3.73
2018-12-13T20:48:08.400Z,3.99
2018-12-13T20:50:37.264Z,3.81
2018-12-13T20:53:06.194Z,3.77
2018-12-13T20:55:35.091Z,4.03
2018-12-13T20:58:04.022Z,3.83
2018-12-13T21:00:32.922Z,3.74
2018-12-13T21:03:01.851Z,3.73
2018-12-13T21:05:30.750Z,3.75
2018-12-13T21:08:09.038Z,3.71
2018-12-13T21:10:39.162Z,3.67
2018-12-13T21:13:08.070Z,3.61
2018-12-13T21:15:36.979Z,3.58
2018-12-13T21:18:05.952Z,3.56
2018-12-13T21:20:34.841Z,3.56
2018-12-13T21:23:03.756Z,3.57
2018-12-13T21:25:32.640Z,3.58
2018-12-13T21:28:01.553Z,3.52
2018-12-13T21:30:30.458Z,3.45
2018-12-13T21:33:00.582Z,3.40
2018-12-13T21:35:28.315Z,3.42
2018-12-13T21:37:57.194Z,3.37
2018-12-13T21:40:26.141Z,3.35
2018-12-13T21:42:55.011Z,3.34
2018-12-13T21:45:23.889Z,3.36
2018-12-13T21:47:53.674Z,3.37
2018-12-13T21:50:21.690Z,3.38
2018-12-13T21:52:50.592Z,3.39
2018-12-13T21:57:57.504Z,3.43
2018-12-13T22:00:26.352Z,3.41
2018-12-13T22:02:55.344Z,3.43
2018-12-13T22:05:24.236Z,3.40
2018-12-13T22:07:53.152Z,3.25
2018-12-13T22:10:22.079Z,3.27
2018-12-13T22:12:50.982Z,3.59
2018-12-13T22:15:19.863Z,3.42
2018-12-13T22:17:50.852Z,3.43
2018-12-13T22:20:19.758Z,3.45
2018-12-13T22:22:48.666Z,3.47
2018-12-13T22:25:17.613Z,3.45
2018-12-13T22:27:48.040Z,3.79
2018-12-13T22:30:16.875Z,3.82
2018-12-13T22:32:45.794Z,3.57
2018-12-13T22:35:14.681Z,3.50
2018-12-13T22:37:43.578Z,3.45
2018-12-13T22:40:12.487Z,3.40
2018-12-13T22:42:41.360Z,3.34
2018-12-13T22:45:10.303Z,3.28
2018-12-13T22:47:39.200Z,3.21
2018-12-13T22:50:08.148Z,3.11
2018-12-13T22:52:37.040Z,3.33
2018-12-13T22:55:06.011Z,3.15
2018-12-13T22:57:34.886Z,3.12
2018-12-13T23:00:03.827Z,3.12
2018-12-13T23:02:32.779Z,3.09
2018-12-13T23:05:01.667Z,3.01
2018-12-13T23:07:30.577Z,2.95
2018-12-13T23:09:59.467Z,2.92
2018-12-13T23:12:28.424Z,2.96
2018-12-13T23:14:57.342Z,2.93
2018-12-13T23:17:26.243Z,2.98
2018-12-13T23:19:55.140Z,2.99
2018-12-13T23:22:24.033Z,2.96
2018-12-13T23:24:52.953Z,3.00
2018-12-13T23:27:21.856Z,3.00
2018-12-13T23:29:50.751Z,3.06
2018-12-13T23:32:19.642Z,3.04
2018-12-13T23:34:48.543Z,3.11
2018-12-13T23:37:17.423Z,3.13
2018-12-13T23:39:46.355Z,3.18
2018-12-13T23:42:15.271Z,3.23
2018-12-13T23:44:44.197Z,3.28
2018-12-13T23:47:13.112Z,3.29
2018-12-13T23:49:42.003Z,3.56
2018-12-13T23:52:10.907Z,3.27
2018-12-13T23:54:39.797Z,3.28
2018-12-13T23:57:08.727Z,3.33
2018-12-13T23:59:37.589Z,3.31
